sensor_id;sensor_type;location;lat;lon;timestamp;pressure;altitude;pressure_sealevel;temperature;humidity
15529;BME280;7866;52.280;9.500;2023-01-29T00:02:02;101566.66;;;0.86;79.77
15529;BME280;7866;52.280;9.500;2023-01-29T00:07:04;101554.28;;;0.88;79.34
15529;BME280;7866;52.280;9.500;2023-01-29T00:12:07;101544.97;;;0.81;79.04
15529;BME280;7866;52.280;9.500;2023-01-29T00:17:09;101543.94;;;0.84;78.86
15529;BME280;7866;52.280;9.500;2023-01-29T00:22:11;101531.69;;;0.83;79.55
15529;BME280;7866;52.280;9.500;2023-01-29T00:27:14;101539.59;;;0.83;79.71
15529;BME280;7866;52.280;9.500;2023-01-29T00:32:15;101534.72;;;0.75;79.00
15529;BME280;7866;52.280;9.500;2023-01-29T00:37:17;101527.13;;;0.86;79.62
15529;BME280;7866;52.280;9.500;2023-01-29T00:42:20;101531.63;;;0.84;80.06
15529;BME280;7866;52.280;9.500;2023-01-29T00:47:41;101536.03;;;0.84;79.25
15529;BME280;7866;52.280;9.500;2023-01-29T00:52:42;101530.00;;;0.82;80.11
15529;BME280;7866;52.280;9.500;2023-01-29T00:57:47;101542.31;;;0.81;79.84
15529;BME280;7866;52.280;9.500;2023-01-29T01:02:48;101549.16;;;0.85;79.79
15529;BME280;7866;52.280;9.500;2023-01-29T01:08:09;101545.72;;;0.83;79.62
15529;BME280;7866;52.280;9.500;2023-01-29T01:13:26;101521.94;;;0.85;80.48
15529;BME280;7866;52.280;9.500;2023-01-29T01:18:29;101511.69;;;0.79;80.72
15529;BME280;7866;52.280;9.500;2023-01-29T01:23:30;101509.38;;;0.72;80.56
15529;BME280;7866;52.280;9.500;2023-01-29T01:28:34;101507.63;;;0.71;80.87
15529;BME280;7866;52.280;9.500;2023-01-29T01:33:36;101510.28;;;0.71;81.91
15529;BME280;7866;52.280;9.500;2023-01-29T01:38:38;101503.31;;;0.70;81.64
15529;BME280;7866;52.280;9.500;2023-01-29T01:43:55;101492.16;;;0.65;81.87
15529;BME280;7866;52.280;9.500;2023-01-29T01:49:00;101489.97;;;0.56;82.07
15529;BME280;7866;52.280;9.500;2023-01-29T01:54:06;101497.88;;;0.56;82.49
15529;BME280;7866;52.280;9.500;2023-01-29T01:59:13;101486.69;;;0.51;82.05
15529;BME280;7866;52.280;9.500;2023-01-29T02:04:18;101485.09;;;0.48;82.04
15529;BME280;7866;52.280;9.500;2023-01-29T02:09:42;101488.63;;;0.47;82.55
15529;BME280;7866;52.280;9.500;2023-01-29T02:14:47;101483.59;;;0.43;82.28
15529;BME280;7866;52.280;9.500;2023-01-29T02:19:56;101495.88;;;0.44;82.30
15529;BME280;7866;52.280;9.500;2023-01-29T02:31:05;101515.63;;;0.53;82.33
15529;BME280;7866;52.280;9.500;2023-01-29T02:36:17;101523.44;;;0.54;81.73
15529;BME280;7866;52.280;9.500;2023-01-29T02:41:25;101525.25;;;0.54;81.10
15529;BME280;7866;52.280;9.500;2023-01-29T02:46:34;101543.38;;;0.60;81.68
15529;BME280;7866;52.280;9.500;2023-01-29T02:51:42;101544.78;;;0.67;80.70
15529;BME280;7866;52.280;9.500;2023-01-29T02:56:47;101533.78;;;0.76;80.37
15529;BME280;7866;52.280;9.500;2023-01-29T03:01:56;101536.50;;;0.74;80.79
15529;BME280;7866;52.280;9.500;2023-01-29T03:07:04;101530.94;;;0.81;79.91
15529;BME280;7866;52.280;9.500;2023-01-29T03:12:12;101509.84;;;0.81;79.79
15529;BME280;7866;52.280;9.500;2023-01-29T03:17:34;101508.19;;;0.95;79.88
15529;BME280;7866;52.280;9.500;2023-01-29T03:22:36;101505.03;;;0.89;80.01
15529;BME280;7866;52.280;9.500;2023-01-29T03:27:44;101502.06;;;0.95;79.71
15529;BME280;7866;52.280;9.500;2023-01-29T03:33:07;101505.97;;;0.88;79.63
15529;BME280;7866;52.280;9.500;2023-01-29T03:38:10;101479.41;;;0.91;79.16
15529;BME280;7866;52.280;9.500;2023-01-29T03:43:19;101497.56;;;0.97;79.36
15529;BME280;7866;52.280;9.500;2023-01-29T03:48:30;101485.22;;;0.97;79.62
15529;BME280;7866;52.280;9.500;2023-01-29T03:53:40;101482.50;;;0.99;79.14
15529;BME280;7866;52.280;9.500;2023-01-29T03:58:46;101487.47;;;1.05;79.21
15529;BME280;7866;52.280;9.500;2023-01-29T04:03:55;101466.38;;;1.05;79.14
15529;BME280;7866;52.280;9.500;2023-01-29T04:09:02;101460.16;;;1.06;79.08
15529;BME280;7866;52.280;9.500;2023-01-29T04:14:06;101449.16;;;0.98;79.02
15529;BME280;7866;52.280;9.500;2023-01-29T04:19:11;101441.34;;;0.96;78.71
15529;BME280;7866;52.280;9.500;2023-01-29T04:24:13;101435.38;;;0.93;79.57
15529;BME280;7866;52.280;9.500;2023-01-29T04:29:36;101418.16;;;0.86;79.45
15529;BME280;7866;52.280;9.500;2023-01-29T04:34:50;101403.28;;;0.85;79.69
15529;BME280;7866;52.280;9.500;2023-01-29T04:39:59;101399.13;;;0.96;79.61
15529;BME280;7866;52.280;9.500;2023-01-29T04:45:15;101390.28;;;0.97;78.58
15529;BME280;7866;52.280;9.500;2023-01-29T04:50:23;101386.94;;;0.94;79.32
15529;BME280;7866;52.280;9.500;2023-01-29T04:55:31;101385.41;;;0.90;79.67
15529;BME280;7866;52.280;9.500;2023-01-29T05:00:39;101399.53;;;0.89;79.58
15529;BME280;7866;52.280;9.500;2023-01-29T05:05:46;101391.00;;;0.84;79.77
15529;BME280;7866;52.280;9.500;2023-01-29T05:10:49;101387.69;;;0.80;79.58
15529;BME280;7866;52.280;9.500;2023-01-29T05:15:56;101385.97;;;0.79;79.47
15529;BME280;7866;52.280;9.500;2023-01-29T05:21:04;101389.41;;;0.81;79.57
15529;BME280;7866;52.280;9.500;2023-01-29T05:26:07;101389.31;;;0.83;80.24
15529;BME280;7866;52.280;9.500;2023-01-29T05:31:09;101394.50;;;0.84;79.34
15529;BME280;7866;52.280;9.500;2023-01-29T05:36:12;101398.69;;;0.88;80.32
15529;BME280;7866;52.280;9.500;2023-01-29T05:41:13;101404.56;;;0.93;80.00
15529;BME280;7866;52.280;9.500;2023-01-29T05:46:16;101409.34;;;1.03;79.62
15529;BME280;7866;52.280;9.500;2023-01-29T05:51:19;101405.69;;;1.05;79.45
15529;BME280;7866;52.280;9.500;2023-01-29T05:56:21;101403.59;;;1.12;78.85
15529;BME280;7866;52.280;9.500;2023-01-29T06:01:24;101408.09;;;1.10;79.11
15529;BME280;7866;52.280;9.500;2023-01-29T06:06:27;101419.19;;;1.16;78.50
15529;BME280;7866;52.280;9.500;2023-01-29T06:11:29;101419.84;;;1.04;78.68
15529;BME280;7866;52.280;9.500;2023-01-29T06:16:30;101426.66;;;1.08;79.30
15529;BME280;7866;52.280;9.500;2023-01-29T06:21:34;101426.41;;;0.95;79.34
15529;BME280;7866;52.280;9.500;2023-01-29T06:26:35;101416.31;;;0.88;80.36
15529;BME280;7866;52.280;9.500;2023-01-29T06:31:37;101418.59;;;0.94;80.48
15529;BME280;7866;52.280;9.500;2023-01-29T06:36:40;101428.22;;;0.95;80.41
15529;BME280;7866;52.280;9.500;2023-01-29T06:41:42;101420.94;;;1.00;80.82
15529;BME280;7866;52.280;9.500;2023-01-29T06:46:45;101419.38;;;0.96;80.11
15529;BME280;7866;52.280;9.500;2023-01-29T06:51:48;101418.28;;;1.00;80.69
15529;BME280;7866;52.280;9.500;2023-01-29T06:56:50;101424.91;;;1.07;80.78
15529;BME280;7866;52.280;9.500;2023-01-29T07:01:52;101430.38;;;1.04;80.96
15529;BME280;7866;52.280;9.500;2023-01-29T07:06:55;101445.81;;;1.12;81.18
15529;BME280;7866;52.280;9.500;2023-01-29T07:11:57;101453.38;;;1.18;81.09
15529;BME280;7866;52.280;9.500;2023-01-29T07:16:59;101451.59;;;1.18;81.60
15529;BME280;7866;52.280;9.500;2023-01-29T07:22:02;101444.47;;;1.03;83.66
15529;BME280;7866;52.280;9.500;2023-01-29T07:27:04;101445.13;;;0.91;84.68
15529;BME280;7866;52.280;9.500;2023-01-29T07:32:06;101447.31;;;0.83;86.55
15529;BME280;7866;52.280;9.500;2023-01-29T07:37:10;101413.53;;;0.73;88.21
15529;BME280;7866;52.280;9.500;2023-01-29T07:42:11;101407.47;;;0.71;88.55
15529;BME280;7866;52.280;9.500;2023-01-29T07:47:13;101414.47;;;0.72;89.62
15529;BME280;7866;52.280;9.500;2023-01-29T07:52:16;101393.03;;;0.79;88.19
15529;BME280;7866;52.280;9.500;2023-01-29T07:57:18;101395.34;;;0.85;89.32
15529;BME280;7866;52.280;9.500;2023-01-29T08:02:19;101372.53;;;0.84;89.56
15529;BME280;7866;52.280;9.500;2023-01-29T08:07:22;101352.66;;;0.94;89.19
15529;BME280;7866;52.280;9.500;2023-01-29T08:12:24;101355.16;;;0.97;89.11
15529;BME280;7866;52.280;9.500;2023-01-29T08:17:25;101360.31;;;0.98;88.79
15529;BME280;7866;52.280;9.500;2023-01-29T08:22:31;101368.94;;;1.02;88.93
15529;BME280;7866;52.280;9.500;2023-01-29T08:27:33;101367.50;;;1.12;89.17
15529;BME280;7866;52.280;9.500;2023-01-29T08:32:35;101371.69;;;1.16;88.33
15529;BME280;7866;52.280;9.500;2023-01-29T08:37:38;101369.81;;;1.18;87.75
15529;BME280;7866;52.280;9.500;2023-01-29T08:42:39;101374.13;;;1.19;87.47
15529;BME280;7866;52.280;9.500;2023-01-29T08:47:44;101371.59;;;1.34;87.46
15529;BME280;7866;52.280;9.500;2023-01-29T08:52:47;101378.31;;;1.39;86.96
15529;BME280;7866;52.280;9.500;2023-01-29T08:57:49;101369.66;;;1.37;86.74
15529;BME280;7866;52.280;9.500;2023-01-29T09:02:51;101356.03;;;1.45;86.93
15529;BME280;7866;52.280;9.500;2023-01-29T09:07:55;101347.16;;;1.46;86.61
15529;BME280;7866;52.280;9.500;2023-01-29T09:12:57;101368.28;;;1.46;86.57
15529;BME280;7866;52.280;9.500;2023-01-29T09:18:02;101362.59;;;1.54;86.11
15529;BME280;7866;52.280;9.500;2023-01-29T09:23:06;101353.97;;;1.50;86.66
15529;BME280;7866;52.280;9.500;2023-01-29T09:28:08;101337.38;;;1.64;85.79
15529;BME280;7866;52.280;9.500;2023-01-29T09:33:10;101329.19;;;1.68;86.35
15529;BME280;7866;52.280;9.500;2023-01-29T09:38:13;101313.22;;;1.86;85.87
15529;BME280;7866;52.280;9.500;2023-01-29T09:43:17;101310.81;;;2.11;84.62
15529;BME280;7866;52.280;9.500;2023-01-29T09:48:21;101295.09;;;2.24;83.29
15529;BME280;7866;52.280;9.500;2023-01-29T09:53:32;101301.91;;;2.28;82.84
15529;BME280;7866;52.280;9.500;2023-01-29T09:58:38;101309.38;;;2.36;82.27
15529;BME280;7866;52.280;9.500;2023-01-29T10:03:55;101305.88;;;2.50;82.50
15529;BME280;7866;52.280;9.500;2023-01-29T10:09:32;101290.13;;;2.48;82.08
15529;BME280;7866;52.280;9.500;2023-01-29T10:14:49;101290.88;;;2.50;81.38
15529;BME280;7866;52.280;9.500;2023-01-29T10:20:05;101282.28;;;2.46;81.58
15529;BME280;7866;52.280;9.500;2023-01-29T10:25:15;101289.44;;;2.59;81.25
15529;BME280;7866;52.280;9.500;2023-01-29T10:30:32;101299.25;;;2.71;80.91
15529;BME280;7866;52.280;9.500;2023-01-29T10:35:38;101304.00;;;2.66;81.14
15529;BME280;7866;52.280;9.500;2023-01-29T10:40:45;101309.22;;;2.67;80.98
15529;BME280;7866;52.280;9.500;2023-01-29T10:45:59;101297.13;;;2.63;80.90
15529;BME280;7866;52.280;9.500;2023-01-29T10:51:14;101286.03;;;2.85;81.30
15529;BME280;7866;52.280;9.500;2023-01-29T10:56:30;101289.06;;;2.79;80.26
15529;BME280;7866;52.280;9.500;2023-01-29T11:01:35;101266.31;;;2.77;80.00
15529;BME280;7866;52.280;9.500;2023-01-29T11:06:37;101255.75;;;2.77;80.10
15529;BME280;7866;52.280;9.500;2023-01-29T11:11:42;101247.56;;;2.94;80.25
15529;BME280;7866;52.280;9.500;2023-01-29T11:16:47;101228.75;;;2.99;79.51
15529;BME280;7866;52.280;9.500;2023-01-29T11:21:51;101228.09;;;2.95;79.68
15529;BME280;7866;52.280;9.500;2023-01-29T11:26:57;101228.09;;;2.95;79.95
15529;BME280;7866;52.280;9.500;2023-01-29T11:32:02;101216.78;;;2.93;79.66
15529;BME280;7866;52.280;9.500;2023-01-29T11:37:15;101219.31;;;2.94;79.88
15529;BME280;7866;52.280;9.500;2023-01-29T11:42:20;101213.53;;;3.02;79.07
15529;BME280;7866;52.280;9.500;2023-01-29T11:47:25;101213.78;;;2.85;78.37
15529;BME280;7866;52.280;9.500;2023-01-29T11:52:35;101194.13;;;2.75;79.27
15529;BME280;7866;52.280;9.500;2023-01-29T11:57:41;101185.72;;;2.82;79.75
15529;BME280;7866;52.280;9.500;2023-01-29T12:02:45;101172.00;;;2.90;78.91
15529;BME280;7866;52.280;9.500;2023-01-29T12:07:50;101156.13;;;2.90;78.39
15529;BME280;7866;52.280;9.500;2023-01-29T12:13:03;101147.03;;;2.94;78.82
15529;BME280;7866;52.280;9.500;2023-01-29T12:18:11;101132.06;;;3.07;77.74
15529;BME280;7866;52.280;9.500;2023-01-29T12:23:23;101132.66;;;2.98;78.13
15529;BME280;7866;52.280;9.500;2023-01-29T12:28:38;101120.19;;;3.00;78.16
15529;BME280;7866;52.280;9.500;2023-01-29T12:33:47;101108.44;;;3.04;78.08
15529;BME280;7866;52.280;9.500;2023-01-29T12:38:51;101109.75;;;3.11;77.71
15529;BME280;7866;52.280;9.500;2023-01-29T12:43:59;101113.41;;;2.96;78.01
15529;BME280;7866;52.280;9.500;2023-01-29T12:49:06;101115.09;;;2.97;77.88
15529;BME280;7866;52.280;9.500;2023-01-29T12:54:14;101114.09;;;2.85;78.30
15529;BME280;7866;52.280;9.500;2023-01-29T12:59:23;101111.66;;;2.82;78.98
15529;BME280;7866;52.280;9.500;2023-01-29T13:04:35;101093.47;;;2.90;78.45
15529;BME280;7866;52.280;9.500;2023-01-29T13:09:42;101101.25;;;2.79;78.39
15529;BME280;7866;52.280;9.500;2023-01-29T13:14:51;101093.44;;;2.78;79.61
15529;BME280;7866;52.280;9.500;2023-01-29T13:19:56;101082.50;;;2.69;78.99
15529;BME280;7866;52.280;9.500;2023-01-29T13:24:59;101090.25;;;2.72;79.33
15529;BME280;7866;52.280;9.500;2023-01-29T13:30:03;101070.59;;;2.77;79.51
15529;BME280;7866;52.280;9.500;2023-01-29T13:35:11;101065.78;;;2.96;79.11
15529;BME280;7866;52.280;9.500;2023-01-29T13:40:22;101067.13;;;2.89;78.60
15529;BME280;7866;52.280;9.500;2023-01-29T13:45:31;101070.28;;;2.81;78.74
15529;BME280;7866;52.280;9.500;2023-01-29T13:50:36;101046.38;;;2.83;79.57
15529;BME280;7866;52.280;9.500;2023-01-29T13:55:41;101039.81;;;2.76;79.73
15529;BME280;7866;52.280;9.500;2023-01-29T14:00:48;101029.13;;;2.90;79.72
15529;BME280;7866;52.280;9.500;2023-01-29T14:05:57;101024.03;;;2.87;79.79
15529;BME280;7866;52.280;9.500;2023-01-29T14:11:27;101017.72;;;2.89;79.65
15529;BME280;7866;52.280;9.500;2023-01-29T14:16:35;101011.69;;;2.87;80.14
15529;BME280;7866;52.280;9.500;2023-01-29T14:21:37;101014.34;;;2.87;80.06
15529;BME280;7866;52.280;9.500;2023-01-29T14:26:43;101007.97;;;2.77;80.10
15529;BME280;7866;52.280;9.500;2023-01-29T14:31:51;100995.56;;;2.65;81.25
15529;BME280;7866;52.280;9.500;2023-01-29T14:36:55;101002.09;;;2.59;81.87
15529;BME280;7866;52.280;9.500;2023-01-29T14:41:58;100985.03;;;2.51;82.56
15529;BME280;7866;52.280;9.500;2023-01-29T14:47:04;100998.56;;;2.46;83.54
15529;BME280;7866;52.280;9.500;2023-01-29T14:52:08;100988.78;;;2.34;84.39
15529;BME280;7866;52.280;9.500;2023-01-29T14:57:12;100976.72;;;2.30;84.45
15529;BME280;7866;52.280;9.500;2023-01-29T15:02:19;100978.53;;;2.29;85.38
15529;BME280;7866;52.280;9.500;2023-01-29T15:07:28;100980.19;;;2.17;85.73
15529;BME280;7866;52.280;9.500;2023-01-29T15:12:35;100974.78;;;2.19;85.61
15529;BME280;7866;52.280;9.500;2023-01-29T15:17:51;100974.88;;;2.17;85.39
15529;BME280;7866;52.280;9.500;2023-01-29T15:22:54;100982.28;;;2.12;85.15
15529;BME280;7866;52.280;9.500;2023-01-29T15:27:57;100977.53;;;2.17;85.22
15529;BME280;7866;52.280;9.500;2023-01-29T15:33:00;100960.38;;;2.10;85.34
15529;BME280;7866;52.280;9.500;2023-01-29T15:38:05;100953.94;;;2.14;85.72
15529;BME280;7866;52.280;9.500;2023-01-29T15:43:19;100957.72;;;2.10;86.08
15529;BME280;7866;52.280;9.500;2023-01-29T15:48:27;100943.03;;;2.06;87.47
15529;BME280;7866;52.280;9.500;2023-01-29T15:53:35;100946.81;;;2.02;88.68
15529;BME280;7866;52.280;9.500;2023-01-29T15:58:38;100932.03;;;2.00;89.02
15529;BME280;7866;52.280;9.500;2023-01-29T16:03:42;100936.66;;;1.96;89.48
15529;BME280;7866;52.280;9.500;2023-01-29T16:08:47;100921.84;;;1.93;90.09
15529;BME280;7866;52.280;9.500;2023-01-29T16:13:50;100907.38;;;1.99;89.87
15529;BME280;7866;52.280;9.500;2023-01-29T16:18:54;100895.63;;;1.90;89.80
15529;BME280;7866;52.280;9.500;2023-01-29T16:23:58;100895.31;;;1.95;89.85
15529;BME280;7866;52.280;9.500;2023-01-29T16:29:03;100887.81;;;1.89;89.97
15529;BME280;7866;52.280;9.500;2023-01-29T16:34:09;100882.97;;;1.95;89.63
15529;BME280;7866;52.280;9.500;2023-01-29T16:39:17;100884.38;;;2.01;89.08
15529;BME280;7866;52.280;9.500;2023-01-29T16:44:31;100870.72;;;1.94;88.88
15529;BME280;7866;52.280;9.500;2023-01-29T16:49:48;100868.91;;;1.95;89.53
15529;BME280;7866;52.280;9.500;2023-01-29T16:54:51;100856.47;;;1.97;88.75
15529;BME280;7866;52.280;9.500;2023-01-29T16:59:56;100833.53;;;1.97;87.82
15529;BME280;7866;52.280;9.500;2023-01-29T17:05:02;100836.94;;;2.00;87.03
15529;BME280;7866;52.280;9.500;2023-01-29T17:10:06;100829.94;;;1.98;88.09
15529;BME280;7866;52.280;9.500;2023-01-29T17:15:28;100837.03;;;1.98;87.53
15529;BME280;7866;52.280;9.500;2023-01-29T17:20:32;100836.94;;;2.00;87.17
15529;BME280;7866;52.280;9.500;2023-01-29T17:25:33;100837.66;;;2.02;86.60
15529;BME280;7866;52.280;9.500;2023-01-29T17:30:36;100831.53;;;2.01;86.64
15529;BME280;7866;52.280;9.500;2023-01-29T17:35:40;100841.81;;;2.06;86.78
15529;BME280;7866;52.280;9.500;2023-01-29T17:40:45;100842.66;;;2.06;86.60
15529;BME280;7866;52.280;9.500;2023-01-29T17:45:48;100832.06;;;2.06;86.00
15529;BME280;7866;52.280;9.500;2023-01-29T17:50:52;100817.06;;;2.07;85.67
15529;BME280;7866;52.280;9.500;2023-01-29T17:55:54;100805.84;;;2.03;85.82
15529;BME280;7866;52.280;9.500;2023-01-29T18:00:55;100798.91;;;2.02;86.06
15529;BME280;7866;52.280;9.500;2023-01-29T18:05:58;100800.50;;;2.05;85.79
15529;BME280;7866;52.280;9.500;2023-01-29T18:11:00;100790.56;;;2.08;85.51
15529;BME280;7866;52.280;9.500;2023-01-29T18:16:02;100781.81;;;2.08;85.32
15529;BME280;7866;52.280;9.500;2023-01-29T18:21:05;100775.25;;;2.13;85.23
15529;BME280;7866;52.280;9.500;2023-01-29T18:26:09;100760.03;;;2.04;86.07
15529;BME280;7866;52.280;9.500;2023-01-29T18:31:11;100748.63;;;2.04;86.34
15529;BME280;7866;52.280;9.500;2023-01-29T18:36:14;100755.47;;;2.06;86.50
15529;BME280;7866;52.280;9.500;2023-01-29T18:41:16;100742.25;;;2.06;87.38
15529;BME280;7866;52.280;9.500;2023-01-29T18:46:18;100734.84;;;2.11;87.19
15529;BME280;7866;52.280;9.500;2023-01-29T18:51:21;100732.44;;;2.08;87.82
15529;BME280;7866;52.280;9.500;2023-01-29T18:56:22;100724.09;;;2.14;87.60
15529;BME280;7866;52.280;9.500;2023-01-29T19:01:24;100717.44;;;2.09;87.88
15529;BME280;7866;52.280;9.500;2023-01-29T19:06:27;100700.00;;;2.06;88.06
15529;BME280;7866;52.280;9.500;2023-01-29T19:11:29;100693.16;;;2.04;89.22
15529;BME280;7866;52.280;9.500;2023-01-29T19:16:31;100681.00;;;2.01;89.26
15529;BME280;7866;52.280;9.500;2023-01-29T19:21:34;100674.34;;;2.08;88.69
15529;BME280;7866;52.280;9.500;2023-01-29T19:26:36;100656.25;;;2.02;89.41
15529;BME280;7866;52.280;9.500;2023-01-29T19:31:38;100625.31;;;2.04;89.83
15529;BME280;7866;52.280;9.500;2023-01-29T19:36:41;100627.63;;;2.09;89.23
15529;BME280;7866;52.280;9.500;2023-01-29T19:41:42;100610.47;;;2.14;88.57
15529;BME280;7866;52.280;9.500;2023-01-29T19:46:44;100620.22;;;2.14;88.48
15529;BME280;7866;52.280;9.500;2023-01-29T19:51:47;100607.25;;;1.98;88.63
15529;BME280;7866;52.280;9.500;2023-01-29T19:56:49;100589.25;;;2.03;88.83
15529;BME280;7866;52.280;9.500;2023-01-29T20:01:51;100552.28;;;2.03;90.01
15529;BME280;7866;52.280;9.500;2023-01-29T20:06:54;100555.66;;;2.05;89.97
15529;BME280;7866;52.280;9.500;2023-01-29T20:11:55;100546.91;;;2.05;90.22
15529;BME280;7866;52.280;9.500;2023-01-29T20:16:57;100519.03;;;2.01;90.40
15529;BME280;7866;52.280;9.500;2023-01-29T20:22:00;100527.03;;;1.99;90.79
15529;BME280;7866;52.280;9.500;2023-01-29T20:27:01;100523.50;;;2.11;90.96
15529;BME280;7866;52.280;9.500;2023-01-29T20:32:04;100501.94;;;2.17;90.53
15529;BME280;7866;52.280;9.500;2023-01-29T20:37:08;100491.59;;;2.14;89.84
15529;BME280;7866;52.280;9.500;2023-01-29T20:42:10;100474.56;;;2.18;90.79
15529;BME280;7866;52.280;9.500;2023-01-29T20:47:12;100475.41;;;2.19;90.71
15529;BME280;7866;52.280;9.500;2023-01-29T20:52:15;100460.44;;;2.19;91.14
15529;BME280;7866;52.280;9.500;2023-01-29T20:57:17;100451.19;;;2.25;90.55
15529;BME280;7866;52.280;9.500;2023-01-29T21:02:19;100453.00;;;2.25;90.00
15529;BME280;7866;52.280;9.500;2023-01-29T21:07:22;100444.59;;;2.31;90.08
15529;BME280;7866;52.280;9.500;2023-01-29T21:12:23;100437.28;;;2.34;89.73
15529;BME280;7866;52.280;9.500;2023-01-29T21:17:25;100409.19;;;2.33;89.38
15529;BME280;7866;52.280;9.500;2023-01-29T21:22:28;100405.00;;;2.42;88.86
15529;BME280;7866;52.280;9.500;2023-01-29T21:27:29;100430.25;;;2.46;88.84
15529;BME280;7866;52.280;9.500;2023-01-29T21:32:31;100407.69;;;2.53;88.72
15529;BME280;7866;52.280;9.500;2023-01-29T21:37:34;100402.19;;;2.56;87.88
15529;BME280;7866;52.280;9.500;2023-01-29T21:42:37;100391.88;;;2.64;88.14
15529;BME280;7866;52.280;9.500;2023-01-29T21:47:56;100382.97;;;2.65;88.01
15529;BME280;7866;52.280;9.500;2023-01-29T21:52:59;100371.69;;;2.63;88.92
15529;BME280;7866;52.280;9.500;2023-01-29T21:58:01;100386.22;;;2.69;88.80
15529;BME280;7866;52.280;9.500;2023-01-29T22:03:03;100402.22;;;2.67;88.89
15529;BME280;7866;52.280;9.500;2023-01-29T22:08:07;100403.41;;;2.75;89.43
15529;BME280;7866;52.280;9.500;2023-01-29T22:13:09;100404.84;;;2.79;89.40
15529;BME280;7866;52.280;9.500;2023-01-29T22:18:10;100361.59;;;2.80;89.33
15529;BME280;7866;52.280;9.500;2023-01-29T22:23:13;100378.91;;;2.84;89.62
15529;BME280;7866;52.280;9.500;2023-01-29T22:28:15;100390.44;;;2.83;89.90
15529;BME280;7866;52.280;9.500;2023-01-29T22:33:17;100399.34;;;2.82;89.96
15529;BME280;7866;52.280;9.500;2023-01-29T22:38:20;100376.16;;;2.85;90.32
15529;BME280;7866;52.280;9.500;2023-01-29T22:43:23;100359.22;;;2.88;90.68
15529;BME280;7866;52.280;9.500;2023-01-29T22:48:25;100374.94;;;2.89;90.67
15529;BME280;7866;52.280;9.500;2023-01-29T22:53:29;100382.41;;;2.95;89.85
15529;BME280;7866;52.280;9.500;2023-01-29T22:58:30;100373.28;;;3.00;90.26
15529;BME280;7866;52.280;9.500;2023-01-29T23:03:32;100361.59;;;3.02;89.86
15529;BME280;7866;52.280;9.500;2023-01-29T23:08:35;100345.97;;;2.99;90.74
15529;BME280;7866;52.280;9.500;2023-01-29T23:13:37;100303.63;;;2.99;90.35
15529;BME280;7866;52.280;9.500;2023-01-29T23:18:39;100246.16;;;3.01;90.98
15529;BME280;7866;52.280;9.500;2023-01-29T23:23:42;100199.97;;;3.05;90.60
15529;BME280;7866;52.280;9.500;2023-01-29T23:28:43;100178.22;;;3.02;90.53
15529;BME280;7866;52.280;9.500;2023-01-29T23:33:45;100186.28;;;3.00;91.78
15529;BME280;7866;52.280;9.500;2023-01-29T23:38:49;100195.66;;;3.04;90.51
15529;BME280;7866;52.280;9.500;2023-01-29T23:43:51;100199.59;;;3.10;90.63
15529;BME280;7866;52.280;9.500;2023-01-29T23:48:53;100158.47;;;3.17;90.45
15529;BME280;7866;52.280;9.500;2023-01-29T23:53:56;100149.88;;;3.25;90.56
15529;BME280;7866;52.280;9.500;2023-01-29T23:58:58;100145.44;;;3.25;90.93
